Time;durP1;ratioP1;P1;durP2;ratioP2;P2;SDS_P1;SDS_P2;PMS_P1;PMS_P2;Temp;Humidity;BMP_temperature;BMP_pressure;BME280_temperature;BME280_humidity;BME280_pressure;Samples;Min_cycle;Max_cycle;Signal;HPM_P1;HPM_P2
2022/07/20 00:00:37;;;;;;;0.05;0.05;;;;;;;22.14;49.30;100826.19;7358842;19;20011;-62
2022/07/20 00:03:07;;;;;;;0.00;0.00;;;;;;;22.20;49.17;100836.41;7355527;19;20359;-62
2022/07/20 00:05:33;;;;;;;0.00;0.00;;;;;;;22.12;48.99;100827.25;7356048;19;20829;-62
2022/07/20 00:07:59;;;;;;;0.00;0.00;;;;;;;22.11;49.23;100837.03;7357711;19;20018;-62
2022/07/20 00:13:09;;;;;;;0.00;0.00;;;;;;;22.03;49.09;100849.97;7364351;19;20038;-62
2022/07/20 00:15:34;;;;;;;0.00;0.00;;;;;;;21.99;48.93;100851.97;7364282;19;20046;-62
2022/07/20 00:18:00;;;;;;;0.10;0.10;;;;;;;21.97;49.22;100861.03;7363553;19;20014;-62
2022/07/20 00:20:25;;;;;;;0.00;0.00;;;;;;;21.88;49.24;100854.50;7362579;19;20017;-62
2022/07/20 00:22:51;;;;;;;0.00;0.00;;;;;;;21.89;49.05;100860.69;7363101;19;20007;-62
2022/07/20 00:25:17;;;;;;;0.00;0.00;;;;;;;21.86;48.62;100858.25;7363564;19;20096;-62
2022/07/20 00:27:42;;;;;;;0.00;0.00;;;;;;;21.82;48.81;100856.75;7360407;19;21344;-62
2022/07/20 00:30:09;;;;;;;0.10;0.10;;;;;;;21.72;48.88;100848.53;7360997;19;20041;-61
2022/07/20 00:32:38;;;;;;;0.00;0.00;;;;;;;21.66;48.54;100838.31;7362220;19;20018;-62
2022/07/20 00:35:09;;;;;;;0.00;0.00;;;;;;;21.74;48.32;100863.41;7363129;19;20077;-61
2022/07/20 00:37:34;;;;;;;0.05;0.05;;;;;;;21.69;48.86;100860.22;7362564;19;20930;-62
2022/07/20 00:40:00;;;;;;;0.10;0.10;;;;;;;21.66;48.73;100863.09;7363007;19;20010;-62
2022/07/20 00:42:26;;;;;;;0.00;0.00;;;;;;;21.62;48.73;100871.38;7360915;19;20020;-62
2022/07/20 00:44:51;;;;;;;0.00;0.00;;;;;;;21.56;48.78;100871.78;7361789;19;20014;-62
2022/07/20 00:47:16;;;;;;;0.03;0.03;;;;;;;21.53;48.76;100888.75;7361465;19;20731;-62
2022/07/20 00:49:42;;;;;;;0.03;0.03;;;;;;;21.49;49.24;100882.81;7357885;19;20474;-62
2022/07/20 00:52:08;;;;;;;0.10;0.10;;;;;;;21.37;49.11;100867.66;7360814;19;20033;-62
2022/07/20 00:54:34;;;;;;;0.00;0.00;;;;;;;21.33;48.59;100866.13;7362042;19;20086;-62
2022/07/20 00:56:59;;;;;;;0.00;0.00;;;;;;;21.31;48.72;100870.72;7361223;19;20061;-62
2022/07/20 00:59:25;;;;;;;0.10;0.10;;;;;;;21.24;48.80;100870.22;7362295;19;20022;-62
2022/07/20 01:01:50;;;;;;;0.00;0.00;;;;;;;21.32;48.95;100884.84;7362416;19;20010;-62
2022/07/20 01:04:16;;;;;;;0.10;0.10;;;;;;;21.30;48.90;100879.63;7360906;19;20014;-62
2022/07/20 01:06:42;;;;;;;0.00;0.00;;;;;;;21.27;48.82;100871.81;7359510;19;20033;-62
2022/07/20 01:09:07;;;;;;;0.08;0.08;;;;;;;21.22;49.14;100884.56;7360293;19;20014;-62
2022/07/20 01:11:34;;;;;;;0.10;0.10;;;;;;;21.17;49.22;100887.50;7363923;19;20017;-62
2022/07/20 01:14:04;;;;;;;0.05;0.05;;;;;;;21.11;49.32;100887.03;7357511;19;20432;-62
2022/07/20 01:16:30;;;;;;;0.08;0.08;;;;;;;20.99;49.08;100868.28;7362291;19;20591;-62
2022/07/20 01:18:55;;;;;;;0.00;0.00;;;;;;;21.09;48.88;100888.97;7363147;19;20146;-62
2022/07/20 01:21:21;;;;;;;0.00;0.00;;;;;;;21.05;49.38;100888.28;7361282;19;20512;-62
2022/07/20 01:23:46;;;;;;;0.00;0.00;;;;;;;21.04;49.31;100891.06;7361395;19;20006;-62
2022/07/20 01:26:11;;;;;;;0.08;0.08;;;;;;;21.04;48.82;100899.03;7361216;19;20011;-62
2022/07/20 01:28:37;;;;;;;0.10;0.10;;;;;;;21.02;49.07;100898.25;7363052;19;20667;-62
2022/07/20 01:31:02;;;;;;;0.00;0.00;;;;;;;20.98;49.01;100898.47;7358181;19;20010;-62
2022/07/20 01:33:28;;;;;;;0.10;0.10;;;;;;;20.99;48.90;100900.16;7360769;19;20665;-62
2022/07/20 01:35:53;;;;;;;0.00;0.00;;;;;;;20.96;49.49;100895.03;7359311;19;20014;-62
2022/07/20 01:38:19;;;;;;;0.10;0.10;;;;;;;20.96;49.72;100895.03;7364214;19;20117;-61
2022/07/20 01:40:44;;;;;;;0.10;0.10;;;;;;;20.86;49.17;100883.28;7359775;19;20018;-62
2022/07/20 01:43:10;;;;;;;0.03;0.03;;;;;;;20.95;49.39;100893.31;7361453;19;20020;-62
2022/07/20 01:45:35;;;;;;;0.05;0.05;;;;;;;20.93;48.86;100895.25;7358050;19;20034;-61
2022/07/20 01:48:01;;;;;;;0.00;0.00;;;;;;;20.91;48.92;100897.13;7362164;19;20506;-63
2022/07/20 01:50:26;;;;;;;0.00;0.00;;;;;;;20.88;49.04;100892.03;7360620;19;20058;-62
2022/07/20 01:52:52;;;;;;;0.03;0.03;;;;;;;20.86;49.26;100899.22;7360823;19;20121;-62
2022/07/20 01:55:17;;;;;;;0.03;0.03;;;;;;;20.83;49.00;100902.03;7360445;19;20026;-62
2022/07/20 01:57:42;;;;;;;0.00;0.00;;;;;;;20.80;49.23;100904.06;7349375;19;20632;-62
2022/07/20 02:00:10;;;;;;;0.05;0.05;;;;;;;20.78;49.13;100906.78;7360130;19;20014;-62
2022/07/20 02:02:36;;;;;;;0.00;0.00;;;;;;;20.75;49.18;100906.13;7362229;19;20010;-62
2022/07/20 02:05:01;;;;;;;0.00;0.00;;;;;;;20.63;49.11;100905.06;7356262;19;20014;-62
2022/07/20 02:07:27;;;;;;;0.10;0.10;;;;;;;20.66;49.23;100915.50;7360650;19;20014;-62
2022/07/20 02:09:52;;;;;;;0.08;0.08;;;;;;;20.62;49.19;100919.28;7363126;19;20020;-62
2022/07/20 02:12:19;;;;;;;0.10;0.10;;;;;;;20.57;49.38;100918.72;7359336;19;20410;-62
2022/07/20 02:14:44;;;;;;;0.00;0.00;;;;;;;20.54;49.45;100924.22;7359834;19;20121;-62
2022/07/20 02:17:10;;;;;;;0.10;0.10;;;;;;;20.50;49.23;100920.91;7360816;19;20537;-62
2022/07/20 02:19:35;;;;;;;0.00;0.00;;;;;;;20.50;49.32;100925.38;7362264;19;20025;-62
2022/07/20 02:22:04;;;;;;;0.00;0.00;;;;;;;20.49;48.98;100928.97;7361234;19;20530;-62
2022/07/20 02:24:30;;;;;;;0.00;0.00;;;;;;;20.36;49.33;100920.84;7358796;19;20121;-62
2022/07/20 02:26:56;;;;;;;0.00;0.00;;;;;;;20.41;49.46;100946.16;7359459;19;20855;-62
2022/07/20 02:29:21;;;;;;;0.00;0.00;;;;;;;20.38;49.22;100941.03;7361437;19;20046;-62
2022/07/20 02:31:46;;;;;;;0.00;0.00;;;;;;;20.34;48.76;100950.13;7356245;19;20014;-62
2022/07/20 02:34:13;;;;;;;0.05;0.05;;;;;;;20.31;49.36;100945.00;7363857;19;20018;-62
2022/07/20 02:36:39;;;;;;;0.00;0.00;;;;;;;20.27;48.88;100959.38;7365621;19;20027;-62
2022/07/20 02:39:04;;;;;;;0.00;0.00;;;;;;;20.26;48.99;100954.16;7366617;19;20014;-62
2022/07/20 02:41:30;;;;;;;0.00;0.00;;;;;;;20.23;49.24;100952.56;7364534;19;20017;-62
2022/07/20 02:43:55;;;;;;;0.00;0.00;;;;;;;20.21;49.09;100965.03;7366003;19;20021;-62
2022/07/20 02:46:21;;;;;;;0.00;0.00;;;;;;;20.18;49.41;100959.94;7364568;19;20829;-62
2022/07/20 02:48:46;;;;;;;0.05;0.05;;;;;;;20.09;49.45;100950.72;7367055;19;20394;-62
2022/07/20 02:51:12;;;;;;;0.00;0.00;;;;;;;20.11;49.08;100964.72;7362583;19;20030;-62
2022/07/20 02:53:37;;;;;;;0.10;0.10;;;;;;;20.14;49.15;100963.69;7365002;19;20483;-62
2022/07/20 02:56:03;;;;;;;0.10;0.10;;;;;;;20.12;49.29;100970.88;7364672;19;20816;-62
2022/07/20 02:58:28;;;;;;;0.08;0.08;;;;;;;20.11;49.54;100964.72;7366065;19;20011;-61
2022/07/20 03:00:54;;;;;;;0.00;0.00;;;;;;;20.11;49.16;100971.81;7364425;19;20434;-62
2022/07/20 03:03:19;;;;;;;0.00;0.00;;;;;;;20.10;49.40;100978.06;7361949;19;20086;-62
2022/07/20 03:05:45;;;;;;;0.10;0.10;;;;;;;19.98;49.31;100962.88;7362595;19;20027;-62
2022/07/20 03:08:10;;;;;;;0.00;0.00;;;;;;;20.09;49.54;100977.22;7362926;19;20647;-63
2022/07/20 03:10:36;;;;;;;0.00;0.00;;;;;;;20.07;49.41;100987.06;7367639;19;20014;-62
2022/07/20 03:13:01;;;;;;;0.00;0.00;;;;;;;19.92;49.31;100975.56;7366171;19;20002;-62
2022/07/20 03:15:27;;;;;;;0.05;0.05;;;;;;;20.02;49.42;100991.78;7365553;19;20128;-61
2022/07/20 03:17:54;;;;;;;0.00;0.00;;;;;;;20.01;49.70;100999.81;7366948;19;20014;-62
2022/07/20 03:20:27;;;;;;;0.00;0.00;;;;;;;20.00;48.95;100998.97;7358914;19;20036;-62
2022/07/20 03:22:53;;;;;;;0.10;0.10;;;;;;;19.98;49.72;100997.34;7366738;19;20314;-62
2022/07/20 03:25:19;;;;;;;0.10;0.10;;;;;;;19.96;49.29;101000.91;7363017;19;20010;-62
2022/07/20 03:27:44;;;;;;;0.03;0.03;;;;;;;19.95;49.27;101004.50;7366503;19;20007;-60
2022/07/20 03:30:10;;;;;;;0.00;0.00;;;;;;;19.93;49.16;101001.13;7365488;19;20471;-62
2022/07/20 03:32:36;;;;;;;0.10;0.10;;;;;;;19.89;49.21;100994.28;7366545;19;20501;-62
2022/07/20 03:35:02;;;;;;;0.10;0.10;;;;;;;19.90;49.50;101001.28;7367749;19;20343;-62
2022/07/20 03:37:28;;;;;;;0.03;0.03;;;;;;;19.90;49.11;101011.03;7365864;19;20028;-62
2022/07/20 03:39:53;;;;;;;0.05;0.05;;;;;;;19.87;49.05;101016.50;7367483;19;20672;-62
2022/07/20 03:42:19;;;;;;;0.05;0.05;;;;;;;19.83;49.41;101010.53;7363911;19;20106;-62
2022/07/20 03:44:44;;;;;;;0.10;0.10;;;;;;;19.78;49.47;101017.03;7366768;19;20050;-62
2022/07/20 03:47:10;;;;;;;0.00;0.00;;;;;;;19.72;49.59;101020.88;7364701;19;20008;-62
2022/07/20 03:49:35;;;;;;;0.00;0.00;;;;;;;19.65;49.37;101012.41;7368181;19;20017;-63
2022/07/20 03:52:01;;;;;;;0.10;0.10;;;;;;;19.59;49.33;101019.81;7366106;19;20102;-62
2022/07/20 03:54:26;;;;;;;0.00;0.00;;;;;;;19.51;49.27;101022.84;7365865;19;20018;-62
2022/07/20 03:56:52;;;;;;;0.08;0.08;;;;;;;19.47;49.32;101020.50;7367548;19;20011;-62
2022/07/20 03:59:17;;;;;;;0.00;0.00;;;;;;;19.32;49.78;101012.44;7365836;19;20030;-62
2022/07/20 04:01:43;;;;;;;0.00;0.00;;;;;;;19.37;49.83;101036.03;7367970;19;20619;-62
2022/07/20 04:04:08;;;;;;;0.00;0.00;;;;;;;19.31;49.97;101046.91;7364674;19;20006;-62
2022/07/20 04:06:34;;;;;;;0.00;0.00;;;;;;;19.23;50.46;101034.09;7367074;19;20019;-63
2022/07/20 04:09:00;;;;;;;0.00;0.00;;;;;;;19.17;50.15;101034.44;7366417;19;20006;-62
2022/07/20 04:11:26;;;;;;;0.00;0.00;;;;;;;19.06;50.15;101028.84;7366316;19;20007;-62
2022/07/20 04:13:52;;;;;;;0.00;0.00;;;;;;;19.06;50.42;101042.06;7366700;19;20764;-63
2022/07/20 04:16:17;;;;;;;0.10;0.10;;;;;;;18.99;50.55;101041.53;7370406;19;20010;-62
2022/07/20 04:18:43;;;;;;;0.00;0.00;;;;;;;18.94;50.70;101046.22;7364240;19;20441;-62
2022/07/20 04:21:08;;;;;;;0.00;0.00;;;;;;;18.88;50.21;101042.09;7365930;19;20711;-62
2022/07/20 04:23:34;;;;;;;0.00;0.00;;;;;;;18.83;50.61;101041.50;7365384;19;20006;-62
2022/07/20 04:25:59;;;;;;;0.00;0.00;;;;;;;18.78;50.85;101045.31;7366603;19;20058;-63
2022/07/20 04:28:25;;;;;;;0.00;0.00;;;;;;;18.71;50.89;101041.28;7366299;19;20011;-62
2022/07/20 04:30:50;;;;;;;0.00;0.00;;;;;;;18.71;50.41;101044.78;7366201;19;20010;-62
2022/07/20 04:33:16;;;;;;;0.10;0.10;;;;;;;18.67;50.62;101043.19;7365885;19;20653;-62
2022/07/20 04:35:41;;;;;;;0.00;0.00;;;;;;;18.62;50.52;101042.56;7364400;19;20530;-62
2022/07/20 04:38:06;;;;;;;0.00;0.00;;;;;;;18.62;50.59;101048.69;7366596;19;20174;-62
2022/07/20 04:40:32;;;;;;;0.10;0.10;;;;;;;18.59;51.11;101061.22;7366355;19;20014;-62
2022/07/20 04:42:58;;;;;;;0.00;0.00;;;;;;;18.57;50.63;101066.59;7365938;19;20007;-62
2022/07/20 04:45:23;;;;;;;0.05;0.05;;;;;;;18.54;51.28;101063.25;7363225;19;20568;-62
2022/07/20 04:47:48;;;;;;;0.00;0.00;;;;;;;18.52;51.08;101073.06;7364769;19;20042;-63
2022/07/20 04:50:14;;;;;;;0.05;0.05;;;;;;;18.51;51.18;101063.41;7363457;19;20136;-62
2022/07/20 04:52:40;;;;;;;0.00;0.00;;;;;;;18.51;51.61;101066.06;7364677;19;20029;-63
2022/07/20 04:55:06;;;;;;;0.00;0.00;;;;;;;18.49;51.27;101073.19;7366106;19;20010;-62
2022/07/20 04:57:31;;;;;;;0.00;0.00;;;;;;;18.49;51.34;101075.84;7362569;19;20018;-62
2022/07/20 04:59:56;;;;;;;0.00;0.00;;;;;;;18.50;51.60;101085.47;7367556;19;25308;-62
2022/07/20 05:02:22;;;;;;;0.00;0.00;;;;;;;18.49;51.91;101083.78;7365255;19;20486;-62
2022/07/20 05:04:47;;;;;;;0.10;0.10;;;;;;;18.46;52.00;101076.00;7365669;19;20074;-62
2022/07/20 05:07:14;;;;;;;0.10;0.10;;;;;;;18.48;52.11;101080.28;7363988;19;20014;-62
2022/07/20 05:09:40;;;;;;;0.00;0.00;;;;;;;18.42;51.86;101070.00;7365271;19;20010;-62
2022/07/20 05:12:06;;;;;;;0.03;0.03;;;;;;;18.47;52.32;101085.66;7365424;19;20010;-62
2022/07/20 05:14:31;;;;;;;0.10;0.10;;;;;;;18.46;51.99;101083.94;7364594;19;20347;-62
2022/07/20 05:16:57;;;;;;;0.10;0.10;;;;;;;18.45;52.50;101088.38;7364610;19;20018;-62
2022/07/20 05:19:22;;;;;;;0.00;0.00;;;;;;;18.46;52.68;101086.59;7363306;19;20014;-62
2022/07/20 05:21:48;;;;;;;0.00;0.00;;;;;;;18.46;52.75;101099.81;7364674;19;20006;-62
2022/07/20 05:24:13;;;;;;;0.10;0.10;;;;;;;18.47;52.77;101101.50;7364790;19;20017;-63
2022/07/20 05:26:38;;;;;;;0.05;0.05;;;;;;;18.50;52.65;101101.34;7365569;19;20011;-62
2022/07/20 05:29:04;;;;;;;0.10;0.10;;;;;;;18.52;53.11;101104.78;7364731;19;20014;-63
2022/07/20 05:31:29;;;;;;;0.00;0.00;;;;;;;18.57;53.07;101110.72;7363913;19;20565;-62
2022/07/20 05:33:55;;;;;;;0.05;0.05;;;;;;;18.60;53.21;101118.47;7365948;19;20591;-62
2022/07/20 05:36:20;;;;;;;0.10;0.10;;;;;;;18.67;52.95;101119.91;7362760;19;20030;-63
2022/07/20 05:38:45;;;;;;;0.10;0.10;;;;;;;18.72;53.05;101125.84;7365209;19;20010;-62
2022/07/20 05:41:11;;;;;;;0.10;0.10;;;;;;;18.77;52.92;101137.06;7363366;19;20086;-62
2022/07/20 05:43:36;;;;;;;0.10;0.10;;;;;;;18.83;52.61;101135.91;7363093;19;20007;-63
2022/07/20 05:46:03;;;;;;;0.10;0.10;;;;;;;18.87;52.34;101133.03;7363587;19;20466;-62
2022/07/20 05:48:30;;;;;;;0.00;0.00;;;;;;;18.78;53.06;101112.31;7363042;19;20012;-62
2022/07/20 05:50:56;;;;;;;0.10;0.10;;;;;;;18.91;52.71;101118.72;7365241;19;20019;-62
2022/07/20 05:53:21;;;;;;;0.10;0.10;;;;;;;18.96;53.11;101133.47;7361146;19;20031;-62
2022/07/20 05:55:47;;;;;;;0.10;0.10;;;;;;;18.99;53.22;101135.97;7364496;19;20014;-62
2022/07/20 05:58:12;;;;;;;0.00;0.00;;;;;;;19.03;52.61;101140.19;7357864;19;20011;-62
2022/07/20 06:00:38;;;;;;;0.00;0.00;;;;;;;19.06;53.19;101135.59;7362424;19;20021;-62
2022/07/20 06:03:05;;;;;;;0.10;0.10;;;;;;;19.10;53.18;101144.22;7361148;19;20042;-63
2022/07/20 06:05:30;;;;;;;0.10;0.10;;;;;;;19.13;52.72;101141.44;7358344;19;20107;-62
2022/07/20 06:08:00;;;;;;;0.00;0.00;;;;;;;19.14;53.08;101143.97;7364338;19;20092;-62
2022/07/20 06:10:26;;;;;;;0.00;0.00;;;;;;;19.14;52.89;101135.19;7360689;19;20096;-62
2022/07/20 06:12:52;;;;;;;0.00;0.00;;;;;;;19.22;52.98;101158.63;7362345;19;20077;-62
2022/07/20 06:15:17;;;;;;;0.00;0.00;;;;;;;19.23;52.75;101147.97;7358148;19;20473;-62
2022/07/20 06:17:42;;;;;;;0.00;0.00;;;;;;;19.25;52.56;101154.03;7360204;19;20026;-63
2022/07/20 06:20:11;;;;;;;0.00;0.00;;;;;;;19.27;52.80;101154.81;7358406;19;20155;-62
2022/07/20 06:22:38;;;;;;;0.00;0.00;;;;;;;19.33;52.64;101166.88;7357924;19;20935;-63
2022/07/20 06:25:05;;;;;;;0.10;0.10;;;;;;;19.36;52.63;101172.88;7358596;19;20582;-62
2022/07/20 06:27:30;;;;;;;0.10;0.10;;;;;;;19.38;52.22;101173.66;7356548;19;20078;-62
2022/07/20 06:29:57;;;;;;;0.05;0.05;;;;;;;19.41;52.60;101176.16;7357449;19;20038;-63
2022/07/20 06:32:22;;;;;;;0.00;0.00;;;;;;;19.44;52.29;101181.25;7359659;19;20018;-62
2022/07/20 06:34:48;;;;;;;0.00;0.00;;;;;;;19.45;51.84;101177.69;7362347;19;20013;-62
2022/07/20 06:37:13;;;;;;;0.00;0.00;;;;;;;19.48;51.43;101179.31;7360569;19;20008;-62
2022/07/20 06:39:38;;;;;;;0.00;0.00;;;;;;;19.39;51.31;101163.91;7349405;19;20019;-63
2022/07/20 06:42:04;;;;;;;0.03;0.03;;;;;;;19.49;51.17;101182.81;7350782;19;20094;-62
2022/07/20 06:44:29;;;;;;;0.00;0.00;;;;;;;19.38;51.26;101171.00;7355952;19;20132;-62
2022/07/20 06:46:55;;;;;;;0.00;0.00;;;;;;;19.43;51.36;101181.34;7355129;19;20010;-62
2022/07/20 06:49:20;;;;;;;0.00;0.00;;;;;;;19.48;51.61;101197.00;7348825;19;20018;-62
2022/07/20 06:51:46;;;;;;;0.00;0.00;;;;;;;19.50;51.25;101198.63;7360783;19;20366;-63
2022/07/20 06:54:11;;;;;;;0.00;0.00;;;;;;;19.50;51.51;101200.44;7363055;19;20018;-62
2022/07/20 06:56:37;;;;;;;0.10;0.10;;;;;;;19.53;51.09;101210.88;7354842;19;20090;-62
2022/07/20 06:59:02;;;;;;;0.10;0.10;;;;;;;19.56;51.85;101211.56;7353072;19;20011;-62
2022/07/20 07:01:27;;;;;;;0.08;0.08;;;;;;;19.59;51.04;101218.50;7332551;19;20022;-62
2022/07/20 07:03:53;;;;;;;0.10;0.10;;;;;;;19.61;50.92;101216.66;7357463;19;20010;-62
2022/07/20 07:06:18;;;;;;;0.03;0.03;;;;;;;19.64;50.99;101219.16;7360926;19;20010;-62
2022/07/20 07:08:43;;;;;;;0.00;0.00;;;;;;;19.66;51.00;101225.22;7359246;19;20014;-63
2022/07/20 07:11:09;;;;;;;0.10;0.10;;;;;;;19.68;50.97;101223.34;7360021;19;20054;-62
2022/07/20 07:13:34;;;;;;;0.00;0.00;;;;;;;19.71;50.92;101220.53;7356427;19;20449;-63
2022/07/20 07:16:00;;;;;;;0.10;0.10;;;;;;;19.75;50.43;101224.72;7361329;19;20017;-62
2022/07/20 07:18:25;;;;;;;0.10;0.10;;;;;;;19.78;50.44;101221.94;7361772;19;20526;-62
2022/07/20 07:20:51;;;;;;;0.10;0.10;;;;;;;19.80;50.11;101230.66;7360525;19;20030;-63
2022/07/20 07:23:16;;;;;;;0.10;0.10;;;;;;;19.84;49.79;101229.56;7357496;19;20007;-63
2022/07/20 07:25:41;;;;;;;0.00;0.00;;;;;;;19.85;49.43;101220.66;7363662;19;20026;-63
2022/07/20 07:28:07;;;;;;;0.00;0.00;;;;;;;19.13;49.38;101102.56;7364333;19;20011;-63
2022/07/20 07:30:33;;;;;;;0.00;0.00;;;;;;;19.91;49.17;101233.59;7363595;19;20443;-63
2022/07/20 07:32:58;;;;;;;0.00;0.00;;;;;;;19.91;48.95;101230.94;7329196;19;20031;-63
2022/07/20 07:35:24;;;;;;;0.00;0.00;;;;;;;20.01;48.97;101238.41;7363355;19;20020;-63
2022/07/20 07:37:49;;;;;;;0.08;0.08;;;;;;;20.04;49.00;101233.78;7362194;19;20414;-63
2022/07/20 07:40:15;;;;;;;0.00;0.00;;;;;;;20.00;49.01;101220.78;7363231;19;20010;-63
2022/07/20 07:42:40;;;;;;;0.00;0.00;;;;;;;20.17;48.99;101245.47;7365332;19;20055;-63
2022/07/20 07:45:07;;;;;;;0.00;0.00;;;;;;;20.25;49.02;101247.69;7368364;19;20027;-64
2022/07/20 07:47:33;;;;;;;0.10;0.10;;;;;;;20.32;48.83;101243.75;7367233;19;20342;-64
2022/07/20 07:49:59;;;;;;;0.10;0.10;;;;;;;20.30;48.37;101232.38;7364137;19;20409;-63
2022/07/20 07:52:24;;;;;;;0.03;0.03;;;;;;;20.43;48.29;101241.38;7366083;19;20006;-63
2022/07/20 07:54:50;;;;;;;0.00;0.00;;;;;;;20.52;48.15;101249.78;7366419;19;20565;-63
2022/07/20 07:57:15;;;;;;;0.10;0.10;;;;;;;20.56;48.05;101252.19;7363340;19;20003;-63
2022/07/20 07:59:42;;;;;;;0.10;0.10;;;;;;;20.52;48.27;101240.03;7362071;19;20017;-64
2022/07/20 08:02:08;;;;;;;0.10;0.10;;;;;;;20.61;48.00;101259.91;7366122;19;20470;-63
2022/07/20 08:04:33;;;;;;;0.00;0.00;;;;;;;20.63;47.92;101261.53;7365251;19;20034;-63
2022/07/20 08:06:58;;;;;;;0.10;0.10;;;;;;;20.63;47.72;101256.25;7360876;19;20523;-63
2022/07/20 08:09:24;;;;;;;0.10;0.10;;;;;;;20.65;47.31;101253.50;7367109;19;20014;-63
2022/07/20 08:11:49;;;;;;;0.10;0.10;;;;;;;20.59;47.46;101251.19;7364945;19;20041;-62
2022/07/20 08:14:15;;;;;;;0.08;0.08;;;;;;;20.65;47.43;101266.75;7361854;19;20030;-63
2022/07/20 08:16:40;;;;;;;0.00;0.00;;;;;;;20.65;47.61;101264.94;7359287;19;20392;-62
2022/07/20 08:19:06;;;;;;;0.05;0.05;;;;;;;20.68;48.17;101271.88;7365871;19;20013;-63
2022/07/20 08:21:31;;;;;;;0.00;0.00;;;;;;;20.73;47.61;101269.81;7350968;19;20006;-63
2022/07/20 08:23:56;;;;;;;0.00;0.00;;;;;;;20.80;48.10;101276.50;7363300;19;20388;-62
2022/07/20 08:26:22;;;;;;;0.10;0.10;;;;;;;20.86;47.68;101280.63;7367397;19;20018;-63
2022/07/20 08:28:47;;;;;;;0.10;0.10;;;;;;;20.87;47.72;101261.09;7361472;19;20025;-62
2022/07/20 08:31:13;;;;;;;0.10;0.10;;;;;;;21.01;47.85;101274.44;7367087;19;20014;-63
2022/07/20 08:33:38;;;;;;;0.00;0.00;;;;;;;21.11;47.82;101288.03;7363446;19;20719;-62
2022/07/20 08:36:04;;;;;;;0.00;0.00;;;;;;;21.22;47.72;101288.28;7363315;19;20014;-63
2022/07/20 08:38:29;;;;;;;0.00;0.00;;;;;;;21.34;47.35;101292.94;7365189;19;20038;-62
2022/07/20 08:40:57;;;;;;;0.00;0.00;;;;;;;21.36;47.15;101288.38;7366326;19;20014;-63
2022/07/20 08:43:23;;;;;;;0.08;0.08;;;;;;;21.50;46.66;101288.41;7363624;19;20557;-63
2022/07/20 08:45:50;;;;;;;0.10;0.10;;;;;;;21.66;46.41;101295.47;7364519;19;20709;-63
2022/07/20 08:48:18;;;;;;;0.10;0.10;;;;;;;21.74;46.28;101290.53;7364069;19;20018;-62
2022/07/20 08:50:45;;;;;;;0.10;0.10;;;;;;;21.73;46.24;101278.22;7359793;19;20568;-62
2022/07/20 08:53:11;;;;;;;0.08;0.08;;;;;;;21.93;46.19;101301.78;7362665;19;20115;-63
2022/07/20 08:55:36;;;;;;;0.00;0.00;;;;;;;22.06;46.27;101293.94;7364575;19;20074;-62
2022/07/20 08:58:02;;;;;;;0.00;0.00;;;;;;;22.18;46.60;101284.34;7366323;19;20465;-62
2022/07/20 09:00:28;;;;;;;0.05;0.05;;;;;;;22.31;46.64;101293.31;7362129;19;20006;-63
2022/07/20 09:03:02;;;;;;;0.00;0.00;;;;;;;22.49;45.81;101293.94;7366482;19;20021;-62
2022/07/20 09:05:30;;;;;;;0.10;0.10;;;;;;;22.59;45.61;101289.75;7364232;19;20624;-63
2022/07/20 09:07:57;;;;;;;0.05;0.05;;;;;;;22.66;45.51;101295.56;7365246;19;20022;-62
2022/07/20 09:10:34;;;;;;;0.10;0.10;;;;;;;22.77;45.10;101287.72;7361929;19;20042;-63
2022/07/20 09:13:13;;;;;;;0.10;0.10;;;;;;;22.82;44.99;101290.94;7358964;19;20026;-63
2022/07/20 09:15:45;;;;;;;0.13;0.13;;;;;;;22.82;44.67;101296.28;7363679;19;20025;-63
2022/07/20 09:18:17;;;;;;;0.00;0.00;;;;;;;22.90;44.58;101306.44;7363832;19;20025;-63
2022/07/20 09:20:49;;;;;;;0.10;0.10;;;;;;;22.91;44.88;101301.03;7363512;19;20014;-63
2022/07/20 09:23:23;;;;;;;0.00;0.00;;;;;;;22.92;44.69;101301.88;7365811;19;20010;-63
2022/07/20 09:25:51;;;;;;;0.08;0.08;;;;;;;22.87;44.03;101302.16;7366475;19;20092;-63
2022/07/20 09:28:16;;;;;;;0.10;0.10;;;;;;;22.84;43.95;101306.81;7362896;19;20078;-63
2022/07/20 09:30:54;;;;;;;0.08;0.08;;;;;;;22.85;44.58;101304.03;7366046;19;20086;-63
2022/07/20 09:33:24;;;;;;;0.10;0.10;;;;;;;22.93;44.28;101308.91;7364765;19;20458;-62
2022/07/20 09:35:49;;;;;;;0.00;0.00;;;;;;;22.97;44.31;101310.44;7365655;19;20074;-63
2022/07/20 09:38:15;;;;;;;0.10;0.10;;;;;;;23.05;43.81;101316.09;7361337;19;20078;-63
2022/07/20 09:40:46;;;;;;;0.10;0.10;;;;;;;23.20;44.19;101312.44;7362710;19;20611;-63
2022/07/20 09:43:30;;;;;;;0.08;0.08;;;;;;;23.30;43.97;101318.84;7364018;19;20014;-63
2022/07/20 09:46:09;;;;;;;0.00;0.00;;;;;;;23.38;43.93;101320.19;7365819;19;20348;-63
2022/07/20 09:48:43;;;;;;;0.00;0.00;;;;;;;23.48;43.77;101322.13;7364906;19;20387;-62
2022/07/20 09:51:21;;;;;;;0.10;0.10;;;;;;;23.62;43.88;101318.53;7364618;19;20029;-63
2022/07/20 09:53:49;;;;;;;0.10;0.10;;;;;;;23.70;43.88;101326.88;7365779;19;20019;-63
2022/07/20 09:56:16;;;;;;;0.10;0.10;;;;;;;23.81;42.38;101318.16;7362144;19;20094;-63
2022/07/20 09:58:43;;;;;;;;;;;;;;;24.00;43.94;101328.41;7364064;19;20042;-63
2022/07/20 10:01:09;;;;;;;0.10;0.10;;;;;;;24.03;43.13;101338.91;7361896;19;19923;-63
2022/07/20 10:03:36;;;;;;;0.10;0.10;;;;;;;24.04;42.01;101312.09;7365477;19;20030;-63
2022/07/20 10:06:01;;;;;;;;;;;;;;;24.34;43.44;101333.13;7366332;19;20006;-63
2022/07/20 10:08:29;;;;;;;0.10;0.10;;;;;;;24.39;42.08;101331.97;7364740;19;19930;-62
2022/07/20 10:10:55;;;;;;;0.10;0.10;;;;;;;24.49;41.71;101333.03;7364109;19;20003;-62
2022/07/20 10:13:20;;;;;;;0.10;0.10;;;;;;;24.62;42.25;101330.31;7364675;19;21346;-63
2022/07/20 10:15:56;;;;;;;0.00;0.00;;;;;;;24.98;42.52;101322.31;7361435;19;20022;-62
2022/07/20 10:18:22;;;;;;;0.10;0.10;;;;;;;25.36;40.93;101326.69;7363416;19;20006;-62
2022/07/20 10:20:49;;;;;;;0.10;0.10;;;;;;;25.78;40.67;101311.88;7363432;19;22241;-63
2022/07/20 10:23:14;;;;;;;0.05;0.05;;;;;;;26.30;40.09;101331.91;7363804;19;20018;-62
2022/07/20 10:25:43;;;;;;;0.10;0.10;;;;;;;26.57;39.77;101310.16;7364812;19;21262;-62
2022/07/20 10:28:32;;;;;;;0.10;0.10;;;;;;;26.95;40.93;101324.94;7361809;19;20010;-62
2022/07/20 10:31:16;;;;;;;0.10;0.10;;;;;;;27.19;39.08;101337.34;7362681;19;20006;-63
2022/07/20 10:33:42;;;;;;;0.10;0.10;;;;;;;27.21;38.12;101340.75;7364176;19;20018;-62
2022/07/20 10:38:55;;;;;;;0.10;0.10;;;;;;;27.39;38.28;101349.94;7362621;19;20030;-62
2022/07/20 10:41:33;;;;;;;0.10;0.10;;;;;;;27.41;37.24;101337.25;7363835;19;22178;-63
2022/07/20 10:44:20;;;;;;;0.10;0.10;;;;;;;27.74;39.54;101348.84;7363032;19;20102;-62
2022/07/20 10:46:48;;;;;;;0.03;0.03;;;;;;;27.94;37.88;101356.06;7360137;19;20481;-62
2022/07/20 10:49:13;;;;;;;0.10;0.10;;;;;;;28.31;36.56;101363.59;7363432;19;20537;-62
2022/07/20 10:51:39;;;;;;;0.05;0.05;;;;;;;28.56;35.62;101341.69;7361254;19;20018;-62
2022/07/20 10:54:36;;;;;;;0.10;0.10;;;;;;;28.92;37.49;101352.81;7367449;19;20014;-62
2022/07/20 10:57:02;;;;;;;;;;;;;;;29.13;38.80;101350.91;7267068;19;2005708;-62
2022/07/20 10:59:27;;;;;;;0.00;0.00;;;;;;;29.10;34.72;101345.00;7367989;19;19986;-62
2022/07/20 11:01:53;;;;;;;0.10;0.10;;;;;;;29.18;35.05;101364.78;7368073;19;20403;-62
2022/07/20 11:04:22;;;;;;;0.00;0.00;;;;;;;29.23;35.78;101363.53;7369502;19;20018;-62
2022/07/20 11:06:48;;;;;;;0.00;0.00;;;;;;;29.09;34.87;101371.00;7368859;19;20010;-63
2022/07/20 11:09:15;;;;;;;0.10;0.10;;;;;;;28.95;34.58;101371.41;7367759;19;20018;-62
2022/07/20 11:11:42;;;;;;;0.00;0.00;;;;;;;28.75;34.92;101361.56;7368693;19;20026;-62
2022/07/20 11:14:10;;;;;;;0.10;0.10;;;;;;;28.60;35.17;101378.06;7369197;19;20011;-62
2022/07/20 11:16:37;;;;;;;0.00;0.00;;;;;;;28.46;35.17;101378.41;7368099;19;20601;-62
2022/07/20 11:19:05;;;;;;;0.10;0.10;;;;;;;28.30;35.98;101372.66;7369544;19;20062;-62
2022/07/20 11:21:39;;;;;;;0.10;0.10;;;;;;;28.25;35.91;101374.88;7364362;19;20011;-63
2022/07/20 11:24:29;;;;;;;0.10;0.10;;;;;;;28.13;36.74;101387.53;7369441;19;20007;-62
2022/07/20 11:26:55;;;;;;;0.10;0.10;;;;;;;27.96;36.42;101375.56;7367522;19;20006;-62
2022/07/20 11:29:25;;;;;;;0.10;0.10;;;;;;;28.04;36.78;101381.13;7370128;19;20023;-62